Time;durP1;ratioP1;P1;durP2;ratioP2;P2;SDS_P1;SDS_P2;PMS_P1;PMS_P2;Temp;Humidity;BMP_temperature;BMP_pressure;BME280_temperature;BME280_humidity;BME280_pressure;Samples;Min_cycle;Max_cycle;Signal;HPM_P1;HPM_P2
2023/07/07 00:01:49;;;;;;;13.88;4.90;;;22.40;54.90;;;;;;5053014;28;20452;-47
2023/07/07 00:04:15;;;;;;;16.02;4.35;;;22.50;55.10;;;;;;5067426;28;20511;-45
2023/07/07 00:06:41;;;;;;;8.82;3.83;;;22.50;55.40;;;;;;5068142;28;20139;-44
2023/07/07 00:09:07;;;;;;;18.13;4.55;;;22.50;55.60;;;;;;5064940;28;20127;-46
2023/07/07 00:11:33;;;;;;;7.82;3.88;;;22.40;55.70;;;;;;5062120;28;20542;-45
2023/07/07 00:13:58;;;;;;;15.95;4.22;;;22.40;55.70;;;;;;5064893;28;20036;-44
2023/07/07 00:16:27;;;;;;;14.18;4.60;;;22.40;55.90;;;;;;5071386;28;20111;-46
2023/07/07 00:18:54;;;;;;;10.88;4.20;;;22.40;56.00;;;;;;5062854;28;20021;-44
2023/07/07 00:21:24;;;;;;;10.95;4.60;;;22.40;56.10;;;;;;5060723;28;20115;-46
2023/07/07 00:23:53;;;;;;;11.65;4.60;;;22.40;56.20;;;;;;5062714;28;20024;-46
2023/07/07 00:26:19;;;;;;;12.50;4.70;;;22.40;56.30;;;;;;5070550;28;20412;-46
2023/07/07 00:28:45;;;;;;;10.68;4.55;;;22.40;56.30;;;;;;5053443;28;20037;-44
2023/07/07 00:31:11;;;;;;;15.05;4.10;;;22.40;56.40;;;;;;5057814;28;20105;-44
2023/07/07 00:33:37;;;;;;;10.73;4.93;;;22.40;56.40;;;;;;5074899;28;20116;-44
2023/07/07 00:36:03;;;;;;;12.40;4.55;;;22.40;56.50;;;;;;5071134;28;20021;-47
2023/07/07 00:38:28;;;;;;;14.13;4.10;;;22.40;56.50;;;;;;5073454;28;20024;-45
2023/07/07 00:40:54;;;;;;;10.05;3.88;;;22.40;56.60;;;;;;5070613;28;20021;-44
2023/07/07 00:43:21;;;;;;;6.78;3.92;;;22.40;56.60;;;;;;5073453;28;20103;-45
2023/07/07 00:45:47;;;;;;;9.85;4.63;;;22.40;56.70;;;;;;5058703;28;20374;-44
2023/07/07 00:48:20;;;;;;;11.77;4.57;;;22.40;56.70;;;;;;5072076;28;20085;-44
2023/07/07 00:50:54;;;;;;;9.30;4.50;;;22.40;56.70;;;;;;5055543;28;20024;-44
2023/07/07 00:53:21;;;;;;;10.18;4.57;;;22.40;56.70;;;;;;5072731;28;20077;-46
2023/07/07 00:55:51;;;;;;;7.03;4.50;;;22.40;56.80;;;;;;5055233;28;20029;-44
2023/07/07 00:58:20;;;;;;;6.78;4.18;;;22.40;56.80;;;;;;5065990;28;20023;-44
2023/07/07 01:00:52;;;;;;;9.70;4.33;;;22.40;56.90;;;;;;5055260;28;20028;-44
2023/07/07 01:03:26;;;;;;;7.22;4.22;;;22.40;56.90;;;;;;5072543;28;20024;-47
2023/07/07 01:05:56;;;;;;;7.70;3.97;;;22.40;56.90;;;;;;5055103;28;20107;-47
2023/07/07 01:08:22;;;;;;;11.50;4.07;;;22.40;57.00;;;;;;5064820;28;20170;-44
2023/07/07 01:10:48;;;;;;;7.75;4.28;;;22.30;57.00;;;;;;5072607;28;20158;-47
2023/07/07 01:13:14;;;;;;;10.60;4.68;;;22.40;57.00;;;;;;5053324;28;20110;-45
2023/07/07 01:16:10;;;;;;;7.88;4.45;;;22.40;57.00;;;;;;5072025;28;20064;-44
2023/07/07 01:19:00;;;;;;;7.97;4.20;;;22.40;57.00;;;;;;5066281;28;20033;-48
2023/07/07 01:21:29;;;;;;;7.65;4.25;;;22.40;57.00;;;;;;5072602;28;20020;-45
2023/07/07 01:24:18;;;;;;;7.68;4.32;;;22.40;57.00;;;;;;5073463;28;20032;-43
2023/07/07 01:27:26;;;;;;;8.30;4.37;;;22.40;57.00;;;;;;5052591;28;20020;-44
2023/07/07 01:29:56;;;;;;;8.43;4.38;;;22.40;57.00;;;;;;5067964;28;20277;-44
2023/07/07 01:32:27;;;;;;;7.00;4.07;;;22.40;57.00;;;;;;5066656;28;20408;-47
2023/07/07 01:34:57;;;;;;;8.07;4.40;;;22.40;57.00;;;;;;5072321;28;20395;-45
2023/07/07 01:37:23;;;;;;;5.97;4.00;;;22.40;57.00;;;;;;5064863;28;20387;-45
2023/07/07 01:39:50;;;;;;;9.25;4.85;;;22.40;57.00;;;;;;5055216;28;20108;-47
2023/07/07 01:42:25;;;;;;;7.53;4.32;;;22.40;57.00;;;;;;5071366;28;20033;-44
2023/07/07 01:45:04;;;;;;;9.15;4.60;;;22.40;57.00;;;;;;5072243;28;20028;-43
2023/07/07 01:47:36;;;;;;;8.10;4.07;;;22.40;57.00;;;;;;5086999;28;20028;-45
2023/07/07 01:50:07;;;;;;;11.32;4.57;;;22.40;57.00;;;;;;5063790;28;20021;-46
2023/07/07 01:52:38;;;;;;;8.70;4.15;;;22.40;57.10;;;;;;5070635;28;20025;-49
2023/07/07 01:55:32;;;;;;;8.05;4.45;;;22.40;57.10;;;;;;5058013;28;20027;-44
2023/07/07 01:58:00;;;;;;;9.00;4.22;;;22.40;57.10;;;;;;5056459;28;20025;-44
2023/07/07 02:00:28;;;;;;;12.27;4.20;;;22.30;57.00;;;;;;5054724;28;20512;-45
2023/07/07 02:02:56;;;;;;;7.70;4.05;;;22.40;57.00;;;;;;5072645;28;20035;-43
2023/07/07 02:05:22;;;;;;;7.47;4.25;;;22.30;57.00;;;;;;5045902;28;20074;-44
2023/07/07 02:07:48;;;;;;;6.40;3.83;;;22.40;57.00;;;;;;5071657;28;20028;-45
2023/07/07 02:10:14;;;;;;;10.48;4.25;;;22.30;57.00;;;;;;5053866;28;20032;-49
2023/07/07 02:12:40;;;;;;;7.35;4.25;;;22.30;57.00;;;;;;5071403;28;20119;-47
2023/07/07 02:15:07;;;;;;;9.77;4.53;;;22.40;57.10;;;;;;5070472;28;20082;-47
2023/07/07 02:17:33;;;;;;;8.02;4.57;;;22.30;57.00;;;;;;5050599;28;20031;-51
2023/07/07 02:19:59;;;;;;;9.32;5.10;;;22.30;57.00;;;;;;5060557;28;20092;-49
2023/07/07 02:22:25;;;;;;;8.10;4.28;;;22.40;57.10;;;;;;5052292;28;20028;-50
2023/07/07 02:24:51;;;;;;;7.78;4.10;;;22.30;57.60;;;;;;5052396;28;20029;-49
2023/07/07 02:27:17;;;;;;;11.15;4.78;;;22.30;57.10;;;;;;5053100;28;20035;-51
2023/07/07 02:29:43;;;;;;;7.30;4.38;;;22.30;57.10;;;;;;5060331;28;20482;-50
2023/07/07 02:32:09;;;;;;;9.52;4.38;;;22.30;57.00;;;;;;5055738;28;20054;-50
2023/07/07 02:34:35;;;;;;;8.35;4.40;;;22.30;57.00;;;;;;5070861;28;20023;-52
2023/07/07 02:37:01;;;;;;;9.43;4.25;;;22.30;57.10;;;;;;5071597;28;20021;-48
2023/07/07 02:39:27;;;;;;;7.38;4.53;;;22.30;57.00;;;;;;5054082;28;20162;-44
2023/07/07 02:41:53;;;;;;;9.82;4.13;;;22.30;57.00;;;;;;5070532;28;20028;-46
2023/07/07 02:44:19;;;;;;;7.72;4.30;;;22.30;57.00;;;;;;5060994;28;20385;-44
2023/07/07 02:46:45;;;;;;;8.75;4.32;;;22.30;57.00;;;;;;5071869;28;20060;-51
2023/07/07 02:49:11;;;;;;;7.05;4.43;;;22.30;57.00;;;;;;5071723;28;20090;-50
2023/07/07 02:51:37;;;;;;;6.63;3.92;;;22.30;57.10;;;;;;5072156;28;20364;-45
2023/07/07 02:54:06;;;;;;;7.72;4.43;;;22.30;56.90;;;;;;5050523;28;20029;-52
2023/07/07 02:56:32;;;;;;;8.68;4.45;;;22.30;56.90;;;;;;5052536;28;20661;-51
2023/07/07 02:58:58;;;;;;;8.45;4.60;;;22.40;57.10;;;;;;5049984;28;20063;-52
2023/07/07 03:01:24;;;;;;;7.82;4.43;;;22.30;56.90;;;;;;5053109;28;20043;-49
2023/07/07 03:03:51;;;;;;;9.90;4.55;;;22.30;57.00;;;;;;5048697;28;20453;-52
2023/07/07 03:06:22;;;;;;;8.65;4.68;;;22.40;57.10;;;;;;5053106;28;20025;-46
2023/07/07 03:08:51;;;;;;;8.20;4.10;;;22.40;57.00;;;;;;5053698;28;20037;-47
2023/07/07 03:11:20;;;;;;;6.32;4.28;;;22.30;57.00;;;;;;5051709;28;20024;-47
2023/07/07 03:13:48;;;;;;;8.18;4.30;;;22.30;57.00;;;;;;5052853;28;20029;-52
2023/07/07 03:16:20;;;;;;;8.15;4.55;;;22.40;57.10;;;;;;5053034;28;20288;-48
2023/07/07 03:18:53;;;;;;;7.72;3.90;;;22.40;56.90;;;;;;5053044;28;20381;-52
2023/07/07 03:21:21;;;;;;;9.40;4.40;;;22.40;57.00;;;;;;5052822;28;20029;-47
2023/07/07 03:23:54;;;;;;;7.25;4.28;;;22.40;57.00;;;;;;5048714;28;20029;-48
2023/07/07 03:26:26;;;;;;;6.93;4.20;;;22.30;57.10;;;;;;5049063;28;20476;-49
2023/07/07 03:28:53;;;;;;;10.38;4.60;;;22.30;56.90;;;;;;5052907;28;20037;-50
2023/07/07 03:31:24;;;;;;;10.45;4.60;;;22.30;57.60;;;;;;5054888;28;20031;-48
2023/07/07 03:33:57;;;;;;;7.75;4.55;;;22.30;57.00;;;;;;5053086;28;20036;-52
2023/07/07 03:36:26;;;;;;;9.10;4.50;;;22.30;57.00;;;;;;5051518;28;20414;-51
2023/07/07 03:38:53;;;;;;;8.82;4.20;;;22.30;57.10;;;;;;5052666;28;20267;-49
2023/07/07 03:41:21;;;;;;;6.85;4.38;;;22.30;57.00;;;;;;5052547;28;20032;-47
2023/07/07 03:43:48;;;;;;;8.32;4.63;;;22.30;57.00;;;;;;5052997;28;20032;-46
2023/07/07 03:46:18;;;;;;;;;;;22.30;57.10;;;;;;5053220;28;20395;-50
2023/07/07 03:48:47;;;;;;;10.15;4.28;;;22.30;57.00;;;;;;5053484;28;19908;-51
2023/07/07 03:51:14;;;;;;;7.15;3.95;;;22.30;57.10;;;;;;5051535;28;20021;-45
2023/07/07 03:53:41;;;;;;;8.80;4.78;;;22.30;57.00;;;;;;5052765;28;20055;-51
2023/07/07 03:56:08;;;;;;;8.32;4.50;;;22.30;57.00;;;;;;5053039;28;20400;-50
2023/07/07 03:58:34;;;;;;;9.32;4.63;;;22.30;57.00;;;;;;5070145;28;20032;-50
2023/07/07 04:01:05;;;;;;;8.40;4.35;;;22.30;57.10;;;;;;5052132;28;20028;-50
2023/07/07 04:03:31;;;;;;;9.10;4.55;;;22.30;57.10;;;;;;5069762;28;20032;-47
2023/07/07 04:05:58;;;;;;;9.60;4.30;;;22.30;57.10;;;;;;5034747;28;20032;-46
2023/07/07 04:08:25;;;;;;;8.30;4.50;;;22.30;57.10;;;;;;5051818;28;20033;-49
2023/07/07 04:10:59;;;;;;;8.65;4.22;;;22.30;57.00;;;;;;5035670;28;20033;-52
2023/07/07 04:13:26;;;;;;;9.30;4.90;;;22.30;57.00;;;;;;5044666;28;20048;-51
2023/07/07 04:16:23;;;;;;;8.85;4.75;;;22.30;57.10;;;;;;5048877;28;20086;-52
2023/07/07 04:18:50;;;;;;;7.60;4.82;;;22.30;57.10;;;;;;5048537;28;20028;-47
2023/07/07 04:21:19;;;;;;;7.00;4.32;;;22.30;57.00;;;;;;5060144;28;20400;-44
2023/07/07 04:23:46;;;;;;;6.57;4.32;;;22.30;57.00;;;;;;5085460;22;20047;-48
2023/07/07 04:26:12;;;;;;;8.18;4.20;;;22.30;57.00;;;;;;5035247;28;20045;-51
2023/07/07 04:28:39;;;;;;;8.02;4.38;;;22.30;57.00;;;;;;5053898;28;20032;-47
2023/07/07 04:31:07;;;;;;;10.13;5.10;;;22.30;56.80;;;;;;5054258;28;20112;-48
2023/07/07 04:33:34;;;;;;;7.82;4.55;;;22.30;57.50;;;;;;5020313;28;20390;-48
2023/07/07 04:36:03;;;;;;;8.50;4.25;;;22.30;57.00;;;;;;5033094;28;20248;-46
2023/07/07 04:38:30;;;;;;;7.80;4.70;;;22.30;56.90;;;;;;5034285;28;20036;-49
2023/07/07 04:41:11;;;;;;;8.55;4.43;;;22.30;56.80;;;;;;5032829;28;20021;-46
2023/07/07 04:43:47;;;;;;;7.43;4.50;;;22.40;56.90;;;;;;5033396;28;20439;-51
2023/07/07 04:46:16;;;;;;;9.45;4.90;;;22.30;56.80;;;;;;5033593;28;20509;-51
2023/07/07 04:48:42;;;;;;;9.57;4.95;;;22.30;56.90;;;;;;5033406;28;20044;-51
2023/07/07 04:51:09;;;;;;;10.07;4.75;;;22.30;56.80;;;;;;5033171;28;20044;-53
2023/07/07 04:53:36;;;;;;;9.32;5.10;;;22.30;56.90;;;;;;5031786;28;20320;-46
2023/07/07 04:56:09;;;;;;;8.00;4.60;;;22.30;56.80;;;;;;5034344;28;20325;-49
2023/07/07 04:58:36;;;;;;;7.38;4.60;;;22.40;56.90;;;;;;5033975;28;20441;-51
2023/07/07 05:01:26;;;;;;;9.02;4.53;;;22.30;56.70;;;;;;5033301;28;20460;-48
2023/07/07 05:03:57;;;;;;;8.52;4.72;;;22.40;56.80;;;;;;5033495;28;20068;-49
2023/07/07 05:06:25;;;;;;;9.45;4.70;;;22.30;56.70;;;;;;5015949;28;20017;-51
2023/07/07 05:08:51;;;;;;;8.85;4.82;;;22.40;56.70;;;;;;5033217;28;20037;-51
2023/07/07 05:11:20;;;;;;;8.80;4.80;;;22.30;57.40;;;;;;5033001;28;20489;-50
2023/07/07 05:13:48;;;;;;;7.73;4.40;;;22.30;56.70;;;;;;5032636;28;20075;-52
2023/07/07 05:16:18;;;;;;;8.95;4.78;;;22.30;56.70;;;;;;5032951;28;20310;-51
2023/07/07 05:18:44;;;;;;;14.15;4.22;;;22.30;57.00;;;;;;5032915;28;20025;-48
2023/07/07 05:21:11;;;;;;;7.80;4.13;;;22.40;57.50;;;;;;5034336;28;20521;-46
2023/07/07 05:23:37;;;;;;;6.70;4.10;;;22.30;57.90;;;;;;5038772;28;20107;-46
2023/07/07 05:26:04;;;;;;;10.25;4.43;;;22.30;57.50;;;;;;5033274;28;20025;-49
2023/07/07 05:28:30;;;;;;;8.15;4.70;;;22.30;57.50;;;;;;5026344;28;20541;-47
2023/07/07 05:30:56;;;;;;;13.18;4.93;;;22.30;57.30;;;;;;5033388;28;20498;-49
2023/07/07 05:33:22;;;;;;;10.45;4.80;;;22.30;57.20;;;;;;5032838;28;20033;-48
2023/07/07 05:35:53;;;;;;;9.60;4.30;;;22.30;56.80;;;;;;5032409;28;20052;-45
2023/07/07 05:38:23;;;;;;;8.57;4.53;;;22.30;57.00;;;;;;5031061;28;20396;-49
2023/07/07 05:40:50;;;;;;;8.95;4.95;;;22.40;56.80;;;;;;5033208;28;20390;-50
2023/07/07 05:43:18;;;;;;;8.88;4.25;;;22.40;56.50;;;;;;5013428;28;20056;-51
2023/07/07 05:45:44;;;;;;;9.23;4.32;;;22.40;56.80;;;;;;5031757;28;21297;-47
2023/07/07 05:48:11;;;;;;;11.23;4.47;;;22.40;56.50;;;;;;5032731;28;20533;-48
2023/07/07 05:50:43;;;;;;;13.45;4.60;;;22.40;55.80;;;;;;5033324;28;20087;-46
2023/07/07 05:53:13;;;;;;;7.55;4.32;;;22.40;56.30;;;;;;5031917;28;20096;-48
2023/07/07 05:55:39;;;;;;;8.25;4.18;;;22.40;56.00;;;;;;5031407;28;20022;-48
2023/07/07 05:58:05;;;;;;;12.88;4.45;;;22.40;55.80;;;;;;5029325;28;20018;-50
2023/07/07 06:00:33;;;;;;;11.38;4.90;;;22.40;55.80;;;;;;5021333;28;20026;-50
2023/07/07 06:02:59;;;;;;;11.07;4.20;;;22.40;55.40;;;;;;5032812;28;20037;-52
2023/07/07 06:05:26;;;;;;;10.98;4.85;;;22.40;55.10;;;;;;5032643;28;20025;-51
2023/07/07 06:07:54;;;;;;;9.15;4.70;;;22.40;55.50;;;;;;5032469;28;20029;-51
2023/07/07 06:10:22;;;;;;;9.60;4.50;;;22.40;55.50;;;;;;5032814;28;20041;-50
2023/07/07 06:12:48;;;;;;;9.02;4.35;;;22.40;55.50;;;;;;5032713;28;20052;-51
2023/07/07 06:15:14;;;;;;;12.63;4.90;;;22.40;55.20;;;;;;5014464;28;20527;-48
2023/07/07 06:17:40;;;;;;;13.23;4.60;;;22.40;55.50;;;;;;5032652;28;20025;-49
2023/07/07 06:20:06;;;;;;;12.63;5.10;;;22.40;55.20;;;;;;5032606;28;20025;-50
2023/07/07 06:22:32;;;;;;;11.70;4.78;;;22.40;55.20;;;;;;5032513;28;20025;-50
2023/07/07 06:25:00;;;;;;;14.52;4.85;;;22.40;55.40;;;;;;5031405;28;20048;-46
2023/07/07 06:27:27;;;;;;;14.00;5.03;;;22.40;55.20;;;;;;5032510;28;20428;-51
2023/07/07 06:29:52;;;;;;;14.13;5.15;;;22.40;54.10;;;;;;5032494;28;20141;-48
2023/07/07 06:32:18;;;;;;;17.17;4.38;;;22.40;54.00;;;;;;5032216;28;20677;-48
2023/07/07 06:34:44;;;;;;;13.52;4.20;;;22.40;52.70;;;;;;5032067;28;20032;-52
2023/07/07 06:37:10;;;;;;;12.63;3.92;;;22.40;53.20;;;;;;5032349;28;20034;-52
2023/07/07 06:39:36;;;;;;;13.45;3.80;;;22.40;51.70;;;;;;5032459;28;20116;-48
2023/07/07 06:42:02;;;;;;;8.98;3.67;;;22.50;50.00;;;;;;5032287;28;20022;-57
2023/07/07 06:44:33;;;;;;;8.90;3.92;;;22.50;48.90;;;;;;5013684;28;20489;-57
2023/07/07 06:46:59;;;;;;;11.95;5.18;;;22.40;47.70;;;;;;5031448;28;20037;-57
2023/07/07 06:49:25;;;;;;;11.48;4.82;;;22.30;45.80;;;;;;5030149;28;20026;-56
2023/07/07 06:51:51;;;;;;;7.88;4.30;;;22.40;46.70;;;;;;5031957;28;20400;-56
2023/07/07 06:54:16;;;;;;;8.23;3.50;;;22.40;47.40;;;;;;5030436;28;20397;-57
2023/07/07 06:56:42;;;;;;;10.20;3.47;;;22.40;47.30;;;;;;5031904;28;20029;-54
2023/07/07 06:59:09;;;;;;;6.35;3.30;;;22.40;48.10;;;;;;5031201;28;20048;-49
2023/07/07 07:01:34;;;;;;;10.30;3.63;;;22.40;47.00;;;;;;5022971;28;20033;-48
2023/07/07 07:04:01;;;;;;;8.95;3.17;;;22.50;47.30;;;;;;5027388;28;20021;-47
2023/07/07 07:06:28;;;;;;;12.05;2.90;;;22.50;47.10;;;;;;5027543;28;20108;-51
2023/07/07 07:08:53;;;;;;;7.05;2.40;;;22.60;46.30;;;;;;5028249;28;20057;-52
2023/07/07 07:11:19;;;;;;;6.88;2.50;;;22.60;46.40;;;;;;5028775;28;20072;-49
2023/07/07 07:13:45;;;;;;;4.35;2.17;;;22.50;46.60;;;;;;5027897;28;20044;-47
2023/07/07 07:16:11;;;;;;;4.53;1.85;;;22.60;47.30;;;;;;5027637;28;20661;-51
2023/07/07 07:18:37;;;;;;;5.22;2.40;;;22.70;47.20;;;;;;5029333;28;20094;-49
2023/07/07 07:21:03;;;;;;;9.95;2.95;;;22.70;47.10;;;;;;5028190;28;20034;-50
2023/07/07 07:23:29;;;;;;;7.72;2.10;;;22.80;46.70;;;;;;5024644;28;20034;-48
2023/07/07 07:25:54;;;;;;;7.35;2.30;;;22.80;45.30;;;;;;5026479;28;20473;-48
2023/07/07 07:28:20;;;;;;;6.50;2.72;;;22.80;46.30;;;;;;5028632;28;20029;-51
2023/07/07 07:30:46;;;;;;;4.95;2.25;;;22.70;46.80;;;;;;5028887;28;20041;-53
2023/07/07 07:33:20;;;;;;;4.03;2.17;;;22.80;46.90;;;;;;5021998;28;20056;-49
2023/07/07 07:35:46;;;;;;;5.82;2.53;;;22.80;46.90;;;;;;5027245;28;20026;-50
2023/07/07 07:38:14;;;;;;;4.20;2.13;;;22.80;47.70;;;;;;5027633;28;20033;-53
2023/07/07 07:40:40;;;;;;;12.85;2.50;;;22.80;47.50;;;;;;5027055;28;20084;-51
2023/07/07 07:43:06;;;;;;;6.30;2.47;;;22.90;46.30;;;;;;5027496;28;20029;-52
2023/07/07 07:45:32;;;;;;;22.17;2.95;;;22.90;45.80;;;;;;5027137;28;20039;-50
2023/07/07 07:47:57;;;;;;;4.45;2.28;;;22.80;44.80;;;;;;5027283;28;20049;-52
2023/07/07 07:50:24;;;;;;;6.03;2.63;;;22.90;47.70;;;;;;5025087;28;20467;-49
2023/07/07 07:52:50;;;;;;;7.68;2.45;;;22.90;46.90;;;;;;5023318;28;20446;-51
2023/07/07 07:55:16;;;;;;;5.10;2.30;;;22.90;47.70;;;;;;5027055;28;20040;-49
2023/07/07 07:57:43;;;;;;;7.57;3.17;;;22.80;47.70;;;;;;5029704;28;20500;-50
2023/07/07 08:00:10;;;;;;;16.95;8.95;;;22.80;48.30;;;;;;5031520;28;20021;-53
2023/07/07 08:02:38;;;;;;;56.25;41.88;;;22.90;47.80;;;;;;5027328;28;20501;-52
2023/07/07 08:05:05;;;;;;;32.78;21.67;;;23.00;48.60;;;;;;5031102;28;20056;-47
2023/07/07 08:07:32;;;;;;;11.63;5.63;;;23.00;48.50;;;;;;5031129;28;20025;-47
2023/07/07 08:09:58;;;;;;;8.20;4.10;;;22.90;48.60;;;;;;5030304;28;20036;-48
2023/07/07 08:12:24;;;;;;;13.23;3.88;;;22.90;48.60;;;;;;5030835;28;20109;-52
2023/07/07 08:14:50;;;;;;;10.55;4.32;;;22.90;48.30;;;;;;5030820;28;20104;-51
2023/07/07 08:17:16;;;;;;;8.05;3.60;;;22.90;48.40;;;;;;5030836;28;20087;-50
2023/07/07 08:19:44;;;;;;;7.05;4.20;;;22.90;47.20;;;;;;5031135;28;20022;-49
2023/07/07 08:22:15;;;;;;;6.15;2.78;;;22.80;48.40;;;;;;5030676;28;20028;-49
2023/07/07 08:24:46;;;;;;;5.35;2.83;;;22.90;48.10;;;;;;5028385;28;20036;-50
2023/07/07 08:27:13;;;;;;;10.15;3.13;;;22.90;48.00;;;;;;5030238;28;20029;-49
2023/07/07 08:29:40;;;;;;;4.57;2.78;;;22.90;48.10;;;;;;5030289;28;20431;-53
2023/07/07 08:32:08;;;;;;;7.95;3.03;;;22.90;47.80;;;;;;5030522;28;20029;-53
2023/07/07 08:34:34;;;;;;;5.05;2.50;;;22.90;48.10;;;;;;5030690;28;20030;-50
2023/07/07 08:36:59;;;;;;;5.43;2.75;;;23.00;47.80;;;;;;5030578;28;20032;-54
2023/07/07 08:39:28;;;;;;;7.72;2.60;;;22.90;47.50;;;;;;5031103;28;20044;-53
2023/07/07 08:42:23;;;;;;;5.57;2.50;;;22.90;47.40;;;;;;5014892;28;20079;-52
2023/07/07 08:44:50;;;;;;;7.63;2.75;;;23.00;47.60;;;;;;5020894;28;20048;-53
2023/07/07 08:47:34;;;;;;;5.78;2.35;;;23.00;46.80;;;;;;5030489;28;20013;-54
2023/07/07 08:50:18;;;;;;;3.90;2.00;;;23.10;46.10;;;;;;5027781;28;20104;-52
2023/07/07 08:52:46;;;;;;;9.65;2.38;;;23.20;45.80;;;;;;5030437;28;20440;-50
2023/07/07 08:55:32;;;;;;;4.68;2.13;;;23.20;45.50;;;;;;5029601;28;20036;-51
2023/07/07 08:58:16;;;;;;;6.18;1.80;;;23.30;45.80;;;;;;5027099;28;20036;-51
2023/07/07 09:00:53;;;;;;;3.20;2.03;;;23.20;45.40;;;;;;5030585;28;20392;-51
2023/07/07 09:03:32;;;;;;;5.18;2.08;;;23.20;46.20;;;;;;5030248;28;20051;-51
2023/07/07 09:06:16;;;;;;;6.95;2.00;;;23.10;45.60;;;;;;5029696;28;20025;-51
2023/07/07 09:08:55;;;;;;;3.25;1.83;;;23.10;46.00;;;;;;5029733;28;20030;-54
2023/07/07 09:11:42;;;;;;;5.40;2.17;;;23.10;46.40;;;;;;5030292;28;20112;-50
2023/07/07 09:14:11;;;;;;;5.20;2.20;;;23.00;46.50;;;;;;5029158;28;20060;-47
2023/07/07 09:16:38;;;;;;;4.45;2.50;;;23.00;45.80;;;;;;4999694;28;20128;-49
2023/07/07 09:19:41;;;;;;;4.07;1.83;;;23.00;47.30;;;;;;5029947;28;20095;-47
2023/07/07 09:22:27;;;;;;;5.55;2.00;;;23.10;46.70;;;;;;4940466;29;20031;-49
2023/07/07 09:24:57;;;;;;;7.07;2.08;;;23.20;45.50;;;;;;4925607;29;20067;-51
2023/07/07 09:27:35;;;;;;;2.85;1.58;;;23.20;44.90;;;;;;4942072;29;20272;-51
2023/07/07 09:30:21;;;;;;;5.20;2.30;;;23.10;45.00;;;;;;4937107;29;20405;-49
2023/07/07 09:32:48;;;;;;;7.93;1.90;;;23.00;43.00;;;;;;4940147;29;20043;-48
2023/07/07 09:35:14;;;;;;;9.48;2.13;;;23.00;44.80;;;;;;4936996;29;20028;-47
2023/07/07 09:37:58;;;;;;;4.63;2.22;;;23.00;45.40;;;;;;4939140;28;20040;-48
2023/07/07 09:40:51;;;;;;;5.40;1.95;;;23.00;46.00;;;;;;4940501;28;20035;-50
2023/07/07 09:43:37;;;;;;;3.42;1.88;;;23.10;45.70;;;;;;4926584;29;20595;-48
2023/07/07 09:46:25;;;;;;;5.70;2.05;;;23.20;45.20;;;;;;4940372;29;20111;-53
2023/07/07 09:49:12;;;;;;;5.57;1.90;;;23.30;45.10;;;;;;4942151;29;20185;-50
2023/07/07 09:51:55;;;;;;;4.28;1.80;;;23.50;44.80;;;;;;4942342;29;20041;-51
2023/07/07 09:54:22;;;;;;;2.92;1.70;;;23.50;43.80;;;;;;4940416;28;20126;-53
2023/07/07 09:57:00;;;;;;;4.40;1.83;;;23.50;43.40;;;;;;5012381;28;20098;-50
2023/07/07 09:59:30;;;;;;;3.85;1.77;;;23.50;42.70;;;;;;5027456;28;20017;-52
2023/07/07 10:01:56;;;;;;;;;;;23.40;42.60;;;;;;5026237;28;20030;-49
2023/07/07 10:04:24;;;;;;;3.63;1.80;;;23.40;42.40;;;;;;5026501;28;20392;-51
2023/07/07 10:07:03;;;;;;;2.45;1.48;;;23.30;43.00;;;;;;5029274;28;20105;-51
2023/07/07 10:09:31;;;;;;;7.32;1.80;;;23.20;43.20;;;;;;4993101;28;20366;-49
2023/07/07 10:11:57;;;;;;;3.25;1.65;;;23.10;42.10;;;;;;5027399;28;20040;-53
2023/07/07 10:14:27;;;;;;;4.22;1.50;;;23.10;43.30;;;;;;5028293;28;20029;-50
2023/07/07 10:16:56;;;;;;;;;;;23.20;43.10;;;;;;5029086;28;20033;-49
2023/07/07 10:19:24;;;;;;;4.95;1.60;;;23.10;41.20;;;;;;5025126;28;20021;-51
2023/07/07 10:21:50;;;;;;;3.28;1.65;;;23.10;41.00;;;;;;5028983;28;20079;-53
2023/07/07 10:24:16;;;;;;;4.75;1.70;;;23.10;41.60;;;;;;5027342;28;20037;-49
2023/07/07 10:26:47;;;;;;;5.38;1.77;;;23.20;43.20;;;;;;5031873;28;20495;-52
2023/07/07 10:29:23;;;;;;;6.40;1.92;;;23.20;42.30;;;;;;5030135;28;20041;-46
2023/07/07 10:31:50;;;;;;;6.55;1.63;;;23.10;42.00;;;;;;5027674;28;20037;-51
2023/07/07 10:34:27;;;;;;;4.28;1.70;;;23.20;43.70;;;;;;5028255;28;20044;-51
2023/07/07 10:36:57;;;;;;;5.40;2.00;;;23.20;42.40;;;;;;5028740;28;20100;-53
2023/07/07 10:39:28;;;;;;;4.13;1.75;;;23.20;43.10;;;;;;5023585;28;20017;-48
2023/07/07 10:41:54;;;;;;;4.97;2.53;;;23.20;43.90;;;;;;5028906;28;20060;-46
2023/07/07 10:44:26;;;;;;;4.20;2.22;;;23.20;44.70;;;;;;5028354;28;20045;-49
2023/07/07 10:46:52;;;;;;;4.75;2.50;;;23.30;44.60;;;;;;5024171;28;20080;-51
2023/07/07 10:49:24;;;;;;;3.72;2.50;;;23.30;44.70;;;;;;5028167;28;20452;-47
2023/07/07 10:52:12;;;;;;;9.25;2.63;;;23.30;44.50;;;;;;5014879;28;20132;-50
2023/07/07 10:54:50;;;;;;;8.32;2.80;;;23.30;44.80;;;;;;5025513;28;20061;-52
2023/07/07 10:57:37;;;;;;;4.75;2.38;;;23.30;45.00;;;;;;5027843;28;20526;-54
2023/07/07 11:00:32;;;;;;;5.30;2.40;;;23.30;44.40;;;;;;5028685;28;20030;-49
2023/07/07 11:03:21;;;;;;;7.03;2.30;;;23.30;44.10;;;;;;5027558;28;20088;-54
2023/07/07 11:06:09;;;;;;;9.30;2.53;;;23.40;43.70;;;;;;5013997;28;20083;-52
2023/07/07 11:08:54;;;;;;;10.10;2.67;;;23.40;45.20;;;;;;5026845;28;20381;-54
2023/07/07 11:11:44;;;;;;;13.30;2.80;;;23.30;45.70;;;;;;5027393;28;20034;-53
2023/07/07 11:14:22;;;;;;;10.93;2.60;;;23.20;45.60;;;;;;5025770;28;20057;-52
2023/07/07 11:17:04;;;;;;;9.15;2.63;;;23.10;46.20;;;;;;5026387;28;20022;-57
2023/07/07 11:19:42;;;;;;;7.55;3.05;;;23.10;46.30;;;;;;5026659;28;20029;-56
2023/07/07 11:22:37;;;;;;;6.43;2.63;;;23.00;46.50;;;;;;5027421;28;20040;-52
2023/07/07 11:25:42;;;;;;;5.38;2.38;;;23.00;46.80;;;;;;5027419;28;20037;-54
2023/07/07 11:28:32;;;;;;;6.70;2.80;;;23.00;47.10;;;;;;4948946;28;20058;-54
2023/07/07 11:31:10;;;;;;;;;;;22.90;47.20;;;;;;4950507;28;20570;-56
2023/07/07 11:33:42;;;;;;;7.57;2.70;;;22.90;47.50;;;;;;4949579;28;19915;-56
2023/07/07 11:36:14;;;;;;;9.20;2.92;;;22.90;47.70;;;;;;4949618;28;20042;-56
2023/07/07 11:39:18;;;;;;;7.50;2.50;;;22.90;47.80;;;;;;4950369;28;20039;-56
2023/07/07 11:41:58;;;;;;;6.75;2.70;;;22.90;48.50;;;;;;4892957;29;20111;-55
2023/07/07 11:44:41;;;;;;;5.25;2.42;;;22.90;48.10;;;;;;4892682;29;20040;-55
2023/07/07 11:47:23;;;;;;;3.72;2.03;;;22.90;48.30;;;;;;4895959;29;20418;-56
2023/07/07 11:50:46;;;;;;;6.18;2.15;;;22.90;48.30;;;;;;4888291;29;20035;-56
2023/07/07 11:53:29;;;;;;;5.70;2.40;;;22.90;48.50;;;;;;4854952;29;20076;-51
2023/07/07 11:56:24;;;;;;;6.38;2.50;;;22.90;48.70;;;;;;4853476;29;20030;-56
2023/07/07 11:59:25;;;;;;;5.78;2.33;;;22.90;48.80;;;;;;4857279;29;20506;-53
2023/07/07 12:01:54;;;;;;;6.70;2.50;;;22.90;48.90;;;;;;4853884;29;20398;-55
2023/07/07 12:04:30;;;;;;;5.25;2.20;;;22.90;49.00;;;;;;4871146;29;20560;-52
2023/07/07 12:07:03;;;;;;;4.50;2.60;;;22.80;49.10;;;;;;4893892;29;20119;-56
2023/07/07 12:09:42;;;;;;;5.50;2.40;;;22.80;49.20;;;;;;4892870;29;20044;-57
2023/07/07 12:12:19;;;;;;;4.35;2.50;;;22.80;49.30;;;;;;4890898;29;20087;-53
2023/07/07 12:15:00;;;;;;;5.43;2.60;;;22.80;49.40;;;;;;4877849;29;20120;-53
2023/07/07 12:17:32;;;;;;;5.05;2.50;;;22.80;49.50;;;;;;4905993;28;20086;-53
2023/07/07 12:20:04;;;;;;;6.15;2.45;;;22.80;49.60;;;;;;4976968;28;20026;-52
2023/07/07 12:22:37;;;;;;;4.18;2.20;;;22.80;49.70;;;;;;4970647;28;20062;-50
2023/07/07 12:25:08;;;;;;;5.22;2.03;;;22.80;49.70;;;;;;5023078;28;20144;-50
2023/07/07 12:27:46;;;;;;;4.85;2.00;;;22.80;49.80;;;;;;5013403;28;20025;-55
2023/07/07 12:30:18;;;;;;;4.03;1.98;;;22.80;49.80;;;;;;5025081;28;21688;-53
2023/07/07 12:32:44;;;;;;;5.35;2.47;;;22.80;50.00;;;;;;5026680;28;20022;-50
2023/07/07 12:35:25;;;;;;;2.65;2.00;;;22.80;50.00;;;;;;5026611;28;20024;-52
2023/07/07 12:37:51;;;;;;;3.78;2.25;;;22.80;50.00;;;;;;5014099;28;20040;-52
2023/07/07 12:40:18;;;;;;;3.50;2.35;;;22.80;50.10;;;;;;5026726;28;20032;-49
2023/07/07 12:42:47;;;;;;;3.67;2.20;;;22.80;50.20;;;;;;5028271;28;20036;-50
2023/07/07 12:45:16;;;;;;;5.80;2.53;;;22.80;50.30;;;;;;5029653;28;20033;-52
2023/07/07 12:47:45;;;;;;;3.42;2.30;;;22.80;50.30;;;;;;5030718;28;20037;-54
2023/07/07 12:50:28;;;;;;;3.03;2.17;;;22.80;50.30;;;;;;5028960;28;20128;-54
2023/07/07 12:53:01;;;;;;;5.45;2.20;;;22.80;50.40;;;;;;5030169;28;20041;-50
2023/07/07 12:55:29;;;;;;;5.45;2.42;;;22.80;50.50;;;;;;5026512;28;20078;-51
2023/07/07 12:58:07;;;;;;;3.30;1.85;;;22.80;51.10;;;;;;5030192;28;20032;-54
2023/07/07 13:00:37;;;;;;;5.90;2.28;;;22.80;50.60;;;;;;5026842;28;20018;-49
2023/07/07 13:03:09;;;;;;;;;;;22.80;50.60;;;;;;5030736;28;20035;-50
2023/07/07 13:05:46;;;;;;;3.20;2.13;;;22.80;50.70;;;;;;5030247;28;20383;-51
2023/07/07 13:08:34;;;;;;;3.28;2.00;;;22.80;50.70;;;;;;5029996;28;20047;-54